sensor_id;sensor_type;location;lat;lon;timestamp;pressure;altitude;pressure_sealevel;temperature;humidity
55490;BME280;44029;52.956;4.772;2023-03-14T00:02:19;98720.03;;;9.67;100.00
55490;BME280;44029;52.956;4.772;2023-03-14T00:04:44;98715.75;;;9.61;100.00
55490;BME280;44029;52.956;4.772;2023-03-14T00:07:11;98721.50;;;9.60;100.00
55490;BME280;44029;52.956;4.772;2023-03-14T00:09:37;98713.16;;;9.70;100.00
55490;BME280;44029;52.956;4.772;2023-03-14T00:12:02;98711.91;;;9.62;100.00
55490;BME280;44029;52.956;4.772;2023-03-14T00:14:28;98703.53;;;9.73;100.00
55490;BME280;44029;52.956;4.772;2023-03-14T00:16:54;98704.06;;;9.75;100.00
55490;BME280;44029;52.956;4.772;2023-03-14T00:19:19;98705.91;;;9.79;100.00
55490;BME280;44029;52.956;4.772;2023-03-14T00:21:44;98698.06;;;9.73;100.00
55490;BME280;44029;52.956;4.772;2023-03-14T00:24:10;98707.69;;;9.70;100.00
55490;BME280;44029;52.956;4.772;2023-03-14T00:26:35;98706.72;;;9.80;100.00
55490;BME280;44029;52.956;4.772;2023-03-14T00:29:00;98713.44;;;9.87;100.00
55490;BME280;44029;52.956;4.772;2023-03-14T00:31:26;98707.44;;;9.85;100.00
55490;BME280;44029;52.956;4.772;2023-03-14T00:33:52;98708.28;;;9.67;100.00
55490;BME280;44029;52.956;4.772;2023-03-14T00:36:18;98711.75;;;9.54;100.00
55490;BME280;44029;52.956;4.772;2023-03-14T00:38:46;98713.09;;;9.56;100.00
55490;BME280;44029;52.956;4.772;2023-03-14T00:41:14;98701.34;;;9.56;100.00
55490;BME280;44029;52.956;4.772;2023-03-14T00:43:41;98704.53;;;9.63;100.00
55490;BME280;44029;52.956;4.772;2023-03-14T00:46:06;98702.22;;;9.70;100.00
55490;BME280;44029;52.956;4.772;2023-03-14T00:48:32;98705.09;;;9.60;100.00
55490;BME280;44029;52.956;4.772;2023-03-14T00:50:57;98706.13;;;9.45;100.00
55490;BME280;44029;52.956;4.772;2023-03-14T00:53:23;98709.19;;;9.62;100.00
55490;BME280;44029;52.956;4.772;2023-03-14T00:55:49;98717.38;;;9.43;100.00
55490;BME280;44029;52.956;4.772;2023-03-14T00:58:16;98714.91;;;9.42;100.00
55490;BME280;44029;52.956;4.772;2023-03-14T01:00:42;98720.78;;;9.54;100.00
55490;BME280;44029;52.956;4.772;2023-03-14T01:03:08;98724.47;;;9.44;100.00
55490;BME280;44029;52.956;4.772;2023-03-14T01:05:34;98728.44;;;9.33;100.00
55490;BME280;44029;52.956;4.772;2023-03-14T01:07:59;98727.19;;;9.44;100.00
55490;BME280;44029;52.956;4.772;2023-03-14T01:10:25;98726.91;;;9.46;100.00
55490;BME280;44029;52.956;4.772;2023-03-14T01:12:51;98728.22;;;9.29;100.00
55490;BME280;44029;52.956;4.772;2023-03-14T01:15:16;98729.47;;;9.37;100.00
55490;BME280;44029;52.956;4.772;2023-03-14T01:17:42;98732.97;;;9.43;100.00
55490;BME280;44029;52.956;4.772;2023-03-14T01:20:10;98720.84;;;9.49;100.00
55490;BME280;44029;52.956;4.772;2023-03-14T01:22:36;98724.47;;;9.44;100.00
55490;BME280;44029;52.956;4.772;2023-03-14T01:25:04;98719.56;;;9.41;100.00
55490;BME280;44029;52.956;4.772;2023-03-14T01:27:30;98712.06;;;9.33;100.00
55490;BME280;44029;52.956;4.772;2023-03-14T01:29:55;98708.34;;;9.24;100.00
55490;BME280;44029;52.956;4.772;2023-03-14T01:32:20;98712.78;;;9.20;100.00
55490;BME280;44029;52.956;4.772;2023-03-14T01:34:46;98717.81;;;9.32;100.00
55490;BME280;44029;52.956;4.772;2023-03-14T01:37:11;98718.09;;;9.11;100.00
55490;BME280;44029;52.956;4.772;2023-03-14T01:39:37;98731.38;;;9.18;100.00
55490;BME280;44029;52.956;4.772;2023-03-14T01:42:03;98720.38;;;9.23;100.00
55490;BME280;44029;52.956;4.772;2023-03-14T01:44:28;98713.16;;;9.32;100.00
55490;BME280;44029;52.956;4.772;2023-03-14T01:46:53;98724.38;;;9.31;100.00
55490;BME280;44029;52.956;4.772;2023-03-14T01:49:30;98723.06;;;9.47;100.00
55490;BME280;44029;52.956;4.772;2023-03-14T01:52:07;98697.38;;;9.48;100.00
55490;BME280;44029;52.956;4.772;2023-03-14T01:54:36;98691.16;;;9.42;100.00
55490;BME280;44029;52.956;4.772;2023-03-14T01:57:25;98697.66;;;9.46;100.00
55490;BME280;44029;52.956;4.772;2023-03-14T01:59:59;98693.59;;;9.44;100.00
55490;BME280;44029;52.956;4.772;2023-03-14T02:02:26;98685.53;;;9.34;100.00
55490;BME280;44029;52.956;4.772;2023-03-14T02:04:54;98702.53;;;9.50;100.00
55490;BME280;44029;52.956;4.772;2023-03-14T02:07:31;98697.94;;;9.26;100.00
55490;BME280;44029;52.956;4.772;2023-03-14T02:09:59;98706.38;;;9.29;100.00
55490;BME280;44029;52.956;4.772;2023-03-14T02:12:26;98696.31;;;9.25;100.00
55490;BME280;44029;52.956;4.772;2023-03-14T02:14:52;98698.97;;;9.30;100.00
55490;BME280;44029;52.956;4.772;2023-03-14T02:17:18;98694.69;;;9.24;100.00
55490;BME280;44029;52.956;4.772;2023-03-14T02:20:09;98692.13;;;9.52;100.00
55490;BME280;44029;52.956;4.772;2023-03-14T02:22:40;98689.13;;;9.29;100.00
55490;BME280;44029;52.956;4.772;2023-03-14T02:25:25;98688.78;;;9.36;100.00
55490;BME280;44029;52.956;4.772;2023-03-14T02:27:53;98686.06;;;9.17;100.00
55490;BME280;44029;52.956;4.772;2023-03-14T02:30:21;98697.31;;;9.10;100.00
55490;BME280;44029;52.956;4.772;2023-03-14T02:32:51;98700.22;;;9.19;100.00
55490;BME280;44029;52.956;4.772;2023-03-14T02:35:23;98699.41;;;9.37;100.00
55490;BME280;44029;52.956;4.772;2023-03-14T02:37:55;98694.09;;;9.27;100.00
55490;BME280;44029;52.956;4.772;2023-03-14T02:40:21;98697.34;;;9.29;100.00
55490;BME280;44029;52.956;4.772;2023-03-14T02:42:46;98692.69;;;9.11;100.00
55490;BME280;44029;52.956;4.772;2023-03-14T02:47:39;98697.50;;;9.19;100.00
55490;BME280;44029;52.956;4.772;2023-03-14T02:50:19;98689.81;;;9.21;100.00
55490;BME280;44029;52.956;4.772;2023-03-14T02:52:45;98693.50;;;9.11;100.00
55490;BME280;44029;52.956;4.772;2023-03-14T02:55:10;98693.66;;;9.20;100.00
55490;BME280;44029;52.956;4.772;2023-03-14T02:57:36;98685.06;;;9.07;100.00
55490;BME280;44029;52.956;4.772;2023-03-14T03:00:02;98683.31;;;9.17;100.00
55490;BME280;44029;52.956;4.772;2023-03-14T03:02:31;98684.63;;;9.19;100.00
55490;BME280;44029;52.956;4.772;2023-03-14T03:04:57;98687.88;;;9.21;100.00
55490;BME280;44029;52.956;4.772;2023-03-14T03:07:23;98689.41;;;9.08;100.00
55490;BME280;44029;52.956;4.772;2023-03-14T03:09:48;98688.19;;;9.20;100.00
55490;BME280;44029;52.956;4.772;2023-03-14T03:12:13;98675.28;;;9.25;100.00
55490;BME280;44029;52.956;4.772;2023-03-14T03:14:39;98684.06;;;9.22;100.00
55490;BME280;44029;52.956;4.772;2023-03-14T03:17:04;98687.53;;;9.09;100.00
55490;BME280;44029;52.956;4.772;2023-03-14T03:19:31;98683.84;;;9.19;100.00
55490;BME280;44029;52.956;4.772;2023-03-14T03:21:56;98667.06;;;9.06;100.00
55490;BME280;44029;52.956;4.772;2023-03-14T03:24:22;98679.69;;;9.02;100.00
55490;BME280;44029;52.956;4.772;2023-03-14T03:26:48;98689.28;;;9.19;100.00
55490;BME280;44029;52.956;4.772;2023-03-14T03:29:13;98685.81;;;9.13;100.00
55490;BME280;44029;52.956;4.772;2023-03-14T03:31:38;98683.53;;;9.01;100.00
55490;BME280;44029;52.956;4.772;2023-03-14T03:34:04;98691.78;;;8.96;100.00
55490;BME280;44029;52.956;4.772;2023-03-14T03:36:29;98688.16;;;9.01;100.00
55490;BME280;44029;52.956;4.772;2023-03-14T03:38:55;98690.09;;;9.00;100.00
55490;BME280;44029;52.956;4.772;2023-03-14T03:41:20;98700.03;;;8.91;100.00
55490;BME280;44029;52.956;4.772;2023-03-14T03:43:45;98694.59;;;9.10;100.00
55490;BME280;44029;52.956;4.772;2023-03-14T03:46:11;98695.31;;;8.97;100.00
55490;BME280;44029;52.956;4.772;2023-03-14T03:48:36;98693.91;;;8.99;100.00
55490;BME280;44029;52.956;4.772;2023-03-14T03:51:01;98695.38;;;8.92;100.00
55490;BME280;44029;52.956;4.772;2023-03-14T03:53:27;98700.94;;;9.05;100.00
55490;BME280;44029;52.956;4.772;2023-03-14T03:55:52;98703.75;;;9.00;100.00
55490;BME280;44029;52.956;4.772;2023-03-14T03:58:17;98709.78;;;8.97;100.00
55490;BME280;44029;52.956;4.772;2023-03-14T04:00:43;98713.03;;;8.99;100.00
55490;BME280;44029;52.956;4.772;2023-03-14T04:03:08;98708.28;;;8.86;100.00
55490;BME280;44029;52.956;4.772;2023-03-14T04:05:34;98712.44;;;9.02;100.00
55490;BME280;44029;52.956;4.772;2023-03-14T04:08:00;98721.81;;;8.96;100.00
55490;BME280;44029;52.956;4.772;2023-03-14T04:10:26;98717.44;;;8.95;100.00
55490;BME280;44029;52.956;4.772;2023-03-14T04:12:51;98721.81;;;8.96;100.00
55490;BME280;44029;52.956;4.772;2023-03-14T04:15:17;98729.25;;;8.90;100.00
55490;BME280;44029;52.956;4.772;2023-03-14T04:17:43;98727.56;;;8.95;100.00
55490;BME280;44029;52.956;4.772;2023-03-14T04:20:08;98729.50;;;8.94;100.00
55490;BME280;44029;52.956;4.772;2023-03-14T04:22:38;98729.97;;;9.01;100.00
55490;BME280;44029;52.956;4.772;2023-03-14T04:25:04;98728.38;;;8.95;100.00
55490;BME280;44029;52.956;4.772;2023-03-14T04:27:31;98727.56;;;8.95;100.00
55490;BME280;44029;52.956;4.772;2023-03-14T04:29:56;98726.81;;;8.89;100.00
55490;BME280;44029;52.956;4.772;2023-03-14T04:32:21;98730.94;;;9.11;100.00
55490;BME280;44029;52.956;4.772;2023-03-14T04:34:47;98739.59;;;8.94;100.00
55490;BME280;44029;52.956;4.772;2023-03-14T04:37:12;98758.88;;;9.02;100.00
55490;BME280;44029;52.956;4.772;2023-03-14T04:39:38;98765.47;;;9.01;100.00
55490;BME280;44029;52.956;4.772;2023-03-14T04:42:03;98778.94;;;8.93;100.00
55490;BME280;44029;52.956;4.772;2023-03-14T04:44:28;98792.72;;;8.77;100.00
55490;BME280;44029;52.956;4.772;2023-03-14T04:46:54;98797.56;;;8.56;100.00
55490;BME280;44029;52.956;4.772;2023-03-14T04:49:19;98805.16;;;8.30;100.00
55490;BME280;44029;52.956;4.772;2023-03-14T04:51:44;98810.41;;;8.16;100.00
55490;BME280;44029;52.956;4.772;2023-03-14T04:54:10;98802.03;;;8.12;100.00
55490;BME280;44029;52.956;4.772;2023-03-14T04:56:35;98816.56;;;7.98;100.00
55490;BME280;44029;52.956;4.772;2023-03-14T04:59:02;98829.34;;;8.02;100.00
55490;BME280;44029;52.956;4.772;2023-03-14T05:01:27;98826.94;;;7.96;100.00
55490;BME280;44029;52.956;4.772;2023-03-14T05:03:52;98834.41;;;7.80;100.00
55490;BME280;44029;52.956;4.772;2023-03-14T05:06:18;98839.84;;;7.80;100.00
55490;BME280;44029;52.956;4.772;2023-03-14T05:08:43;98841.53;;;7.70;100.00
55490;BME280;44029;52.956;4.772;2023-03-14T05:11:10;98838.75;;;7.81;100.00
55490;BME280;44029;52.956;4.772;2023-03-14T05:13:35;98848.31;;;7.78;100.00
55490;BME280;44029;52.956;4.772;2023-03-14T05:16:09;98846.63;;;7.87;100.00
55490;BME280;44029;52.956;4.772;2023-03-14T05:18:35;98850.28;;;7.62;100.00
55490;BME280;44029;52.956;4.772;2023-03-14T05:21:01;98851.84;;;7.73;100.00
55490;BME280;44029;52.956;4.772;2023-03-14T05:23:26;98863.34;;;7.65;100.00
55490;BME280;44029;52.956;4.772;2023-03-14T05:25:52;98867.16;;;7.64;100.00
55490;BME280;44029;52.956;4.772;2023-03-14T05:28:17;98875.13;;;7.50;100.00
55490;BME280;44029;52.956;4.772;2023-03-14T05:30:42;98882.28;;;7.31;100.00
55490;BME280;44029;52.956;4.772;2023-03-14T05:33:08;98865.13;;;7.30;100.00
55490;BME280;44029;52.956;4.772;2023-03-14T05:35:33;98872.50;;;7.25;100.00
55490;BME280;44029;52.956;4.772;2023-03-14T05:37:58;98871.38;;;7.31;100.00
55490;BME280;44029;52.956;4.772;2023-03-14T05:40:24;98885.84;;;7.26;100.00
55490;BME280;44029;52.956;4.772;2023-03-14T05:42:49;98909.78;;;7.34;100.00
55490;BME280;44029;52.956;4.772;2023-03-14T05:45:14;98910.66;;;6.99;100.00
55490;BME280;44029;52.956;4.772;2023-03-14T05:47:40;98926.47;;;6.71;100.00
55490;BME280;44029;52.956;4.772;2023-03-14T05:50:05;98929.47;;;6.60;100.00
55490;BME280;44029;52.956;4.772;2023-03-14T05:52:31;98932.97;;;6.34;100.00
55490;BME280;44029;52.956;4.772;2023-03-14T05:54:56;98934.56;;;6.25;100.00
55490;BME280;44029;52.956;4.772;2023-03-14T05:57:22;98950.88;;;6.20;100.00
55490;BME280;44029;52.956;4.772;2023-03-14T05:59:47;98956.34;;;6.20;100.00
55490;BME280;44029;52.956;4.772;2023-03-14T06:02:12;98972.59;;;6.10;100.00
55490;BME280;44029;52.956;4.772;2023-03-14T06:04:38;98975.28;;;6.05;100.00
55490;BME280;44029;52.956;4.772;2023-03-14T06:07:03;98972.84;;;6.03;100.00
55490;BME280;44029;52.956;4.772;2023-03-14T06:09:28;98973.81;;;5.81;100.00
55490;BME280;44029;52.956;4.772;2023-03-14T06:11:54;98987.69;;;5.90;100.00
55490;BME280;44029;52.956;4.772;2023-03-14T06:14:19;99001.84;;;5.87;100.00
55490;BME280;44029;52.956;4.772;2023-03-14T06:16:44;99004.81;;;5.86;100.00
55490;BME280;44029;52.956;4.772;2023-03-14T06:19:10;99025.69;;;5.75;100.00
55490;BME280;44029;52.956;4.772;2023-03-14T06:21:36;99031.94;;;5.80;100.00
55490;BME280;44029;52.956;4.772;2023-03-14T06:24:01;99056.38;;;5.75;100.00
55490;BME280;44029;52.956;4.772;2023-03-14T06:26:27;99047.69;;;5.78;100.00
55490;BME280;44029;52.956;4.772;2023-03-14T06:28:52;99048.28;;;5.86;100.00
55490;BME280;44029;52.956;4.772;2023-03-14T06:31:18;99088.50;;;5.84;100.00
55490;BME280;44029;52.956;4.772;2023-03-14T06:33:44;99075.16;;;5.82;100.00
55490;BME280;44029;52.956;4.772;2023-03-14T06:36:09;99079.28;;;5.90;100.00
55490;BME280;44029;52.956;4.772;2023-03-14T06:38:34;99078.47;;;5.89;100.00
55490;BME280;44029;52.956;4.772;2023-03-14T06:41:07;99116.06;;;5.97;100.00
55490;BME280;44029;52.956;4.772;2023-03-14T06:43:32;99110.75;;;5.80;100.00
55490;BME280;44029;52.956;4.772;2023-03-14T06:45:58;99104.91;;;5.99;100.00
55490;BME280;44029;52.956;4.772;2023-03-14T06:48:23;99130.66;;;5.91;100.00
55490;BME280;44029;52.956;4.772;2023-03-14T06:50:49;99133.75;;;6.00;100.00
55490;BME280;44029;52.956;4.772;2023-03-14T06:53:14;99161.69;;;5.95;100.00
55490;BME280;44029;52.956;4.772;2023-03-14T06:55:39;99157.84;;;5.91;100.00
55490;BME280;44029;52.956;4.772;2023-03-14T06:58:05;99177.00;;;6.02;100.00
55490;BME280;44029;52.956;4.772;2023-03-14T07:00:33;99169.84;;;5.95;100.00
55490;BME280;44029;52.956;4.772;2023-03-14T07:02:59;99179.03;;;5.89;100.00
55490;BME280;44029;52.956;4.772;2023-03-14T07:05:24;99199.78;;;6.00;100.00
55490;BME280;44029;52.956;4.772;2023-03-14T07:07:49;99198.44;;;5.98;100.00
55490;BME280;44029;52.956;4.772;2023-03-14T07:10:15;99204.72;;;6.04;100.00
55490;BME280;44029;52.956;4.772;2023-03-14T07:12:40;99225.16;;;6.11;100.00
55490;BME280;44029;52.956;4.772;2023-03-14T07:15:06;99220.84;;;6.15;100.00
55490;BME280;44029;52.956;4.772;2023-03-14T07:17:31;99236.59;;;6.13;100.00
55490;BME280;44029;52.956;4.772;2023-03-14T07:19:56;99244.53;;;6.20;100.00
55490;BME280;44029;52.956;4.772;2023-03-14T07:22:22;99251.31;;;6.17;100.00
55490;BME280;44029;52.956;4.772;2023-03-14T07:24:47;99264.69;;;6.24;100.00
55490;BME280;44029;52.956;4.772;2023-03-14T07:27:12;99263.59;;;6.25;100.00
55490;BME280;44029;52.956;4.772;2023-03-14T07:29:38;99290.88;;;6.35;100.00
55490;BME280;44029;52.956;4.772;2023-03-14T07:32:03;99284.94;;;6.38;100.00
55490;BME280;44029;52.956;4.772;2023-03-14T07:34:28;99292.78;;;6.35;100.00
55490;BME280;44029;52.956;4.772;2023-03-14T07:36:54;99292.28;;;6.43;100.00
55490;BME280;44029;52.956;4.772;2023-03-14T07:39:19;99299.69;;;6.48;100.00
55490;BME280;44029;52.956;4.772;2023-03-14T07:41:44;99313.56;;;6.51;100.00
55490;BME280;44029;52.956;4.772;2023-03-14T07:44:10;99315.75;;;6.54;100.00
55490;BME280;44029;52.956;4.772;2023-03-14T07:46:35;99316.84;;;6.53;100.00
55490;BME280;44029;52.956;4.772;2023-03-14T07:49:00;99329.16;;;6.61;100.00
55490;BME280;44029;52.956;4.772;2023-03-14T07:51:26;99338.34;;;6.55;100.00
55490;BME280;44029;52.956;4.772;2023-03-14T07:53:51;99341.50;;;6.74;100.00
55490;BME280;44029;52.956;4.772;2023-03-14T07:56:16;99359.13;;;6.71;100.00
55490;BME280;44029;52.956;4.772;2023-03-14T07:58:42;99371.44;;;6.79;100.00
55490;BME280;44029;52.956;4.772;2023-03-14T08:01:07;99372.78;;;6.76;100.00
55490;BME280;44029;52.956;4.772;2023-03-14T08:03:32;99385.19;;;6.62;100.00
55490;BME280;44029;52.956;4.772;2023-03-14T08:05:58;99388.22;;;6.66;100.00
55490;BME280;44029;52.956;4.772;2023-03-14T08:08:23;99394.25;;;6.73;100.00
55490;BME280;44029;52.956;4.772;2023-03-14T08:10:48;99395.38;;;6.77;100.00
55490;BME280;44029;52.956;4.772;2023-03-14T08:13:14;99414.09;;;6.68;100.00
55490;BME280;44029;52.956;4.772;2023-03-14T08:15:39;99413.88;;;6.75;100.00
55490;BME280;44029;52.956;4.772;2023-03-14T08:18:05;99417.75;;;6.84;100.00
55490;BME280;44029;52.956;4.772;2023-03-14T08:20:31;99439.22;;;6.81;100.00
55490;BME280;44029;52.956;4.772;2023-03-14T08:22:57;99439.31;;;6.58;100.00
55490;BME280;44029;52.956;4.772;2023-03-14T08:25:23;99458.59;;;6.52;100.00
55490;BME280;44029;52.956;4.772;2023-03-14T08:27:49;99464.03;;;6.52;100.00
55490;BME280;44029;52.956;4.772;2023-03-14T08:30:15;99467.50;;;6.74;100.00
55490;BME280;44029;52.956;4.772;2023-03-14T08:32:41;99489.44;;;6.63;100.00
55490;BME280;44029;52.956;4.772;2023-03-14T08:35:07;99492.44;;;6.66;100.00
55490;BME280;44029;52.956;4.772;2023-03-14T08:37:33;99510.91;;;6.64;100.00
55490;BME280;44029;52.956;4.772;2023-03-14T08:39:59;99496.88;;;6.72;100.00
55490;BME280;44029;52.956;4.772;2023-03-14T08:42:24;99508.88;;;6.76;100.00
55490;BME280;44029;52.956;4.772;2023-03-14T08:44:53;99525.19;;;7.04;100.00
55490;BME280;44029;52.956;4.772;2023-03-14T08:47:18;99536.78;;;6.94;100.00
55490;BME280;44029;52.956;4.772;2023-03-14T08:49:44;99536.19;;;6.87;100.00
55490;BME280;44029;52.956;4.772;2023-03-14T08:52:09;99546.31;;;6.91;100.00
55490;BME280;44029;52.956;4.772;2023-03-14T08:54:34;99562.28;;;6.83;100.00
55490;BME280;44029;52.956;4.772;2023-03-14T08:57:00;99564.59;;;6.96;100.00
55490;BME280;44029;52.956;4.772;2023-03-14T08:59:25;99582.81;;;6.95;100.00
55490;BME280;44029;52.956;4.772;2023-03-14T09:01:50;99584.72;;;6.95;100.00
55490;BME280;44029;52.956;4.772;2023-03-14T09:04:16;99596.03;;;7.09;100.00
55490;BME280;44029;52.956;4.772;2023-03-14T09:06:41;99606.19;;;7.19;100.00
55490;BME280;44029;52.956;4.772;2023-03-14T09:09:07;99627.56;;;7.32;100.00
55490;BME280;44029;52.956;4.772;2023-03-14T09:11:32;99626.13;;;7.24;100.00
55490;BME280;44029;52.956;4.772;2023-03-14T09:13:58;99642.91;;;7.43;100.00
55490;BME280;44029;52.956;4.772;2023-03-14T09:16:23;99653.31;;;7.46;100.00
55490;BME280;44029;52.956;4.772;2023-03-14T09:18:48;99677.78;;;7.41;100.00
55490;BME280;44029;52.956;4.772;2023-03-14T09:21:14;99672.75;;;7.28;100.00
55490;BME280;44029;52.956;4.772;2023-03-14T09:23:40;99681.13;;;7.48;100.00
55490;BME280;44029;52.956;4.772;2023-03-14T09:26:05;99697.91;;;7.40;100.00
55490;BME280;44029;52.956;4.772;2023-03-14T09:28:31;99721.31;;;7.36;100.00
55490;BME280;44029;52.956;4.772;2023-03-14T09:30:56;99711.47;;;7.08;100.00
55490;BME280;44029;52.956;4.772;2023-03-14T09:33:22;99729.91;;;7.23;100.00
55490;BME280;44029;52.956;4.772;2023-03-14T09:35:47;99726.59;;;7.21;100.00
55490;BME280;44029;52.956;4.772;2023-03-14T09:38:12;99736.28;;;7.33;100.00
55490;BME280;44029;52.956;4.772;2023-03-14T09:40:38;99751.59;;;7.40;100.00
55490;BME280;44029;52.956;4.772;2023-03-14T09:43:04;99754.72;;;7.26;100.00
55490;BME280;44029;52.956;4.772;2023-03-14T09:45:36;99772.50;;;7.34;100.00
55490;BME280;44029;52.956;4.772;2023-03-14T09:48:03;99772.44;;;7.29;100.00
55490;BME280;44029;52.956;4.772;2023-03-14T09:50:44;99779.16;;;7.21;100.00
55490;BME280;44029;52.956;4.772;2023-03-14T09:53:15;99767.13;;;7.39;100.00
55490;BME280;44029;52.956;4.772;2023-03-14T09:55:43;99791.25;;;7.30;100.00
55490;BME280;44029;52.956;4.772;2023-03-14T09:58:12;99781.16;;;7.26;100.00
55490;BME280;44029;52.956;4.772;2023-03-14T10:00:38;99789.09;;;7.32;100.00
55490;BME280;44029;52.956;4.772;2023-03-14T10:05:38;99815.28;;;7.55;100.00
55490;BME280;44029;52.956;4.772;2023-03-14T10:08:04;99817.00;;;7.40;100.00
55490;BME280;44029;52.956;4.772;2023-03-14T10:10:30;99832.03;;;7.20;100.00
55490;BME280;44029;52.956;4.772;2023-03-14T10:13:18;99851.09;;;7.42;100.00
55490;BME280;44029;52.956;4.772;2023-03-14T10:15:52;99839.56;;;7.35;100.00
55490;BME280;44029;52.956;4.772;2023-03-14T10:18:19;99842.28;;;7.35;100.00
55490;BME280;44029;52.956;4.772;2023-03-14T10:20:47;99859.75;;;7.39;100.00
55490;BME280;44029;52.956;4.772;2023-03-14T10:25:59;99882.94;;;7.64;100.00
55490;BME280;44029;52.956;4.772;2023-03-14T10:28:33;99882.78;;;7.48;100.00
55490;BME280;44029;52.956;4.772;2023-03-14T10:30:59;99891.00;;;7.31;100.00
55490;BME280;44029;52.956;4.772;2023-03-14T10:33:26;99898.78;;;7.23;100.00
55490;BME280;44029;52.956;4.772;2023-03-14T10:35:53;99903.78;;;7.31;100.00
55490;BME280;44029;52.956;4.772;2023-03-14T10:38:22;99918.03;;;7.38;100.00
55490;BME280;44029;52.956;4.772;2023-03-14T10:40:52;99916.50;;;7.42;100.00
55490;BME280;44029;52.956;4.772;2023-03-14T10:43:22;99928.38;;;7.36;100.00
55490;BME280;44029;52.956;4.772;2023-03-14T10:45:54;99929.78;;;7.39;100.00
55490;BME280;44029;52.956;4.772;2023-03-14T10:48:29;99927.69;;;7.68;100.00
55490;BME280;44029;52.956;4.772;2023-03-14T10:50:56;99943.13;;;7.57;100.00
55490;BME280;44029;52.956;4.772;2023-03-14T10:53:22;99957.63;;;7.41;100.00
55490;BME280;44029;52.956;4.772;2023-03-14T10:55:48;99967.56;;;7.52;100.00
55490;BME280;44029;52.956;4.772;2023-03-14T10:58:44;99970.19;;;7.64;100.00
55490;BME280;44029;52.956;4.772;2023-03-14T11:01:31;99982.03;;;7.74;100.00
55490;BME280;44029;52.956;4.772;2023-03-14T11:09:23;100006.53;;;7.91;100.00
55490;BME280;44029;52.956;4.772;2023-03-14T11:11:52;100020.53;;;7.78;100.00
55490;BME280;44029;52.956;4.772;2023-03-14T11:14:32;100008.06;;;8.04;100.00
55490;BME280;44029;52.956;4.772;2023-03-14T11:17:19;100022.88;;;7.91;100.00
55490;BME280;44029;52.956;4.772;2023-03-14T11:28:08;100052.75;;;7.81;100.00
55490;BME280;44029;52.956;4.772;2023-03-14T11:30:40;100069.63;;;7.78;100.00
55490;BME280;44029;52.956;4.772;2023-03-14T11:33:15;100074.41;;;7.71;100.00
55490;BME280;44029;52.956;4.772;2023-03-14T11:38:48;100095.72;;;8.13;100.00
55490;BME280;44029;52.956;4.772;2023-03-14T11:41:19;100091.75;;;7.82;100.00
55490;BME280;44029;52.956;4.772;2023-03-14T11:43:53;100106.19;;;7.82;100.00
55490;BME280;44029;52.956;4.772;2023-03-14T11:51:50;100135.53;;;7.75;100.00
55490;BME280;44029;52.956;4.772;2023-03-14T11:54:34;100141.41;;;7.50;100.00
55490;BME280;44029;52.956;4.772;2023-03-14T11:57:10;100148.69;;;7.61;100.00
55490;BME280;44029;52.956;4.772;2023-03-14T12:10:46;100180.50;;;7.55;94.88
55490;BME280;44029;52.956;4.772;2023-03-14T12:13:14;100175.66;;;7.46;98.12
55490;BME280;44029;52.956;4.772;2023-03-14T12:15:50;100183.69;;;7.86;100.00
55490;BME280;44029;52.956;4.772;2023-03-14T12:18:21;100189.75;;;7.88;100.00
55490;BME280;44029;52.956;4.772;2023-03-14T12:20:53;100200.91;;;7.87;100.00
55490;BME280;44029;52.956;4.772;2023-03-14T12:23:20;100196.66;;;7.45;97.35
55490;BME280;44029;52.956;4.772;2023-03-14T12:25:45;100211.94;;;7.46;95.97
55490;BME280;44029;52.956;4.772;2023-03-14T12:28:22;100217.66;;;7.62;95.93
55490;BME280;44029;52.956;4.772;2023-03-14T12:30:55;100219.38;;;7.51;89.35
55490;BME280;44029;52.956;4.772;2023-03-14T12:33:26;100221.28;;;7.50;86.70
55490;BME280;44029;52.956;4.772;2023-03-14T12:35:58;100222.38;;;7.66;90.60
55490;BME280;44029;52.956;4.772;2023-03-14T12:38:58;100239.69;;;7.43;93.40
55490;BME280;44029;52.956;4.772;2023-03-14T12:41:44;100241.28;;;7.56;96.15
55490;BME280;44029;52.956;4.772;2023-03-14T12:46:58;100243.88;;;7.80;100.00
55490;BME280;44029;52.956;4.772;2023-03-14T12:49:31;100258.75;;;7.43;100.00
55490;BME280;44029;52.956;4.772;2023-03-14T12:52:00;100263.75;;;7.63;99.88
55490;BME280;44029;52.956;4.772;2023-03-14T12:57:26;100265.34;;;7.76;100.00
55490;BME280;44029;52.956;4.772;2023-03-14T13:00:01;100272.09;;;7.73;100.00
55490;BME280;44029;52.956;4.772;2023-03-14T13:02:41;100273.44;;;7.88;100.00
55490;BME280;44029;52.956;4.772;2023-03-14T13:05:15;100280.81;;;7.87;100.00
55490;BME280;44029;52.956;4.772;2023-03-14T13:10:26;100288.72;;;7.72;99.01
55490;BME280;44029;52.956;4.772;2023-03-14T13:18:00;100315.59;;;7.51;100.00
55490;BME280;44029;52.956;4.772;2023-03-14T13:20:32;100327.47;;;7.45;98.68
55490;BME280;44029;52.956;4.772;2023-03-14T13:22:59;100322.06;;;7.22;97.39
55490;BME280;44029;52.956;4.772;2023-03-14T13:25:29;100328.69;;;7.38;97.37
55490;BME280;44029;52.956;4.772;2023-03-14T13:27:55;100334.16;;;7.26;100.00
55490;BME280;44029;52.956;4.772;2023-03-14T13:30:26;100347.06;;;7.30;98.81
55490;BME280;44029;52.956;4.772;2023-03-14T13:32:53;100336.38;;;7.41;100.00
55490;BME280;44029;52.956;4.772;2023-03-14T13:35:26;100337.72;;;7.55;100.00
55490;BME280;44029;52.956;4.772;2023-03-14T13:37:58;100346.25;;;7.59;100.00
55490;BME280;44029;52.956;4.772;2023-03-14T13:40:32;100350.16;;;7.63;100.00
55490;BME280;44029;52.956;4.772;2023-03-14T13:43:24;100358.69;;;7.66;100.00
55490;BME280;44029;52.956;4.772;2023-03-14T13:45:53;100364.81;;;7.73;100.00
55490;BME280;44029;52.956;4.772;2023-03-14T13:48:21;100367.78;;;7.72;100.00
55490;BME280;44029;52.956;4.772;2023-03-14T13:51:07;100373.31;;;7.77;100.00
55490;BME280;44029;52.956;4.772;2023-03-14T13:53:46;100379.88;;;7.76;100.00
55490;BME280;44029;52.956;4.772;2023-03-14T13:56:12;100391.75;;;7.70;100.00
55490;BME280;44029;52.956;4.772;2023-03-14T13:58:39;100383.88;;;7.85;100.00